createdAt,value
2022-10-17T00:01:31.015Z,17.90
2022-10-17T00:03:59.885Z,17.17
2022-10-17T00:06:28.743Z,11.90
2022-10-17T00:08:57.652Z,12.43
2022-10-17T00:11:26.516Z,16.80
2022-10-17T00:13:57.922Z,15.13
2022-10-17T00:16:28.119Z,17.90
2022-10-17T00:18:57.372Z,12.33
2022-10-17T00:21:26.715Z,18.53
2022-10-17T00:23:55.998Z,15.70
2022-10-17T00:26:24.902Z,15.80
2022-10-17T00:28:56.447Z,11.17
2022-10-17T00:31:28.295Z,11.17
2022-10-17T00:33:57.097Z,12.67
2022-10-17T00:36:29.095Z,13.73
2022-10-17T00:39:00.301Z,11.47
2022-10-17T00:41:31.283Z,10.90
2022-10-17T00:44:02.880Z,13.03
2022-10-17T00:46:33.772Z,13.20
2022-10-17T00:49:06.670Z,14.37
2022-10-17T00:51:39.848Z,14.10
2022-10-17T00:54:10.004Z,11.50
2022-10-17T00:56:40.488Z,12.87
2022-10-17T00:59:13.624Z,10.87
2022-10-17T01:01:45.436Z,12.70
2022-10-17T01:04:15.859Z,11.83
2022-10-17T01:06:45.799Z,14.17
2022-10-17T01:09:14.667Z,12.03
2022-10-17T01:11:52.041Z,15.00
2022-10-17T01:14:29.852Z,9.77
2022-10-17T01:17:06.399Z,9.83
2022-10-17T01:19:52.126Z,14.60
2022-10-17T01:22:28.485Z,14.93
2022-10-17T01:25:25.021Z,10.50
2022-10-17T01:28:19.908Z,10.33
2022-10-17T01:31:03.859Z,14.50
2022-10-17T01:33:44.854Z,11.07
2022-10-17T01:36:20.887Z,12.17
2022-10-17T01:38:54.261Z,10.10
2022-10-17T01:41:32.739Z,10.17
2022-10-17T01:44:05.699Z,8.63
2022-10-17T01:46:39.257Z,11.20
2022-10-17T01:49:12.405Z,12.47
2022-10-17T01:51:44.767Z,9.47
2022-10-17T01:54:19.792Z,12.53
2022-10-17T01:56:53.675Z,8.17
2022-10-17T01:59:26.775Z,9.90
2022-10-17T02:02:00.443Z,10.13
2022-10-17T02:04:30.450Z,8.73
2022-10-17T02:07:06.847Z,14.13
2022-10-17T02:09:36.345Z,8.67
2022-10-17T02:12:21.364Z,9.80
2022-10-17T02:15:10.299Z,10.53
2022-10-17T02:17:52.316Z,9.60
2022-10-17T02:20:26.959Z,9.10
2022-10-17T02:23:01.823Z,13.13
2022-10-17T02:25:41.578Z,10.40
2022-10-17T02:28:20.418Z,7.53
2022-10-17T02:30:56.463Z,7.37
2022-10-17T02:33:30.519Z,8.47
2022-10-17T02:36:04.993Z,7.97
2022-10-17T02:38:35.371Z,6.90
2022-10-17T02:41:05.240Z,8.10
2022-10-17T02:43:35.565Z,7.70
2022-10-17T02:46:04.990Z,8.10
2022-10-17T02:48:42.574Z,8.50
2022-10-17T02:51:20.876Z,8.17
2022-10-17T02:53:59.488Z,6.50
2022-10-17T02:56:31.529Z,5.90
2022-10-17T02:59:03.708Z,6.37
2022-10-17T03:01:33.137Z,7.07
2022-10-17T03:04:11.988Z,5.80
2022-10-17T03:06:41.973Z,6.17
2022-10-17T03:09:11.364Z,7.60
2022-10-17T03:11:40.459Z,6.10
2022-10-17T03:14:10.764Z,8.53
2022-10-17T03:16:40.342Z,7.60
2022-10-17T03:19:10.729Z,5.60
2022-10-17T03:21:39.792Z,5.97
2022-10-17T03:24:09.825Z,7.27
2022-10-17T03:26:38.833Z,11.37
2022-10-17T03:29:09.427Z,6.43
2022-10-17T03:31:38.463Z,5.43
2022-10-17T03:34:10.323Z,6.13
2022-10-17T03:36:39.332Z,7.23
2022-10-17T03:39:08.822Z,9.20
2022-10-17T03:41:37.810Z,7.10
2022-10-17T03:44:07.273Z,6.40
2022-10-17T03:46:36.308Z,5.87
2022-10-17T03:49:06.290Z,6.63
2022-10-17T03:51:37.079Z,5.87
2022-10-17T03:54:11.454Z,7.30
2022-10-17T03:56:40.292Z,9.73
2022-10-17T03:59:15.594Z,6.97
2022-10-17T04:01:50.160Z,6.07
2022-10-17T04:04:21.069Z,7.23
2022-10-17T04:06:51.295Z,7.70
2022-10-17T04:09:20.279Z,6.17
2022-10-17T04:11:58.835Z,6.17
2022-10-17T04:14:27.941Z,6.03
2022-10-17T04:16:58.561Z,6.87
2022-10-17T04:19:28.638Z,7.47
2022-10-17T04:21:59.156Z,6.00
2022-10-17T04:24:29.651Z,7.90
2022-10-17T04:27:21.445Z,6.27
2022-10-17T04:29:50.493Z,8.53
2022-10-17T04:32:24.554Z,7.13
2022-10-17T04:35:04.001Z,7.13
2022-10-17T04:37:35.349Z,10.90
2022-10-17T04:40:11.870Z,6.33
2022-10-17T04:42:40.867Z,7.70
2022-10-17T04:45:12.227Z,8.30
2022-10-17T04:47:42.363Z,7.67
2022-10-17T04:50:11.366Z,8.27
2022-10-17T04:52:43.590Z,10.70
2022-10-17T04:55:12.426Z,6.40
2022-10-17T04:57:42.121Z,8.27
2022-10-17T05:00:19.784Z,7.17
2022-10-17T05:03:00.979Z,7.60
2022-10-17T05:05:30.916Z,7.00
2022-10-17T05:08:01.184Z,6.73
2022-10-17T05:10:37.920Z,6.40
2022-10-17T05:13:08.738Z,7.90
2022-10-17T05:15:39.739Z,8.57
2022-10-17T05:18:08.990Z,8.33
2022-10-17T05:20:38.703Z,7.70
2022-10-17T05:23:09.900Z,9.33
2022-10-17T05:25:42.588Z,7.40
2022-10-17T05:28:11.415Z,8.37
2022-10-17T05:30:42.285Z,7.37
2022-10-17T05:33:11.693Z,7.40
2022-10-17T05:35:40.617Z,8.03
2022-10-17T05:38:11.016Z,8.07
2022-10-17T05:40:42.078Z,9.20
2022-10-17T05:43:10.827Z,9.10
2022-10-17T05:45:39.708Z,7.07
2022-10-17T05:48:11.848Z,7.30
2022-10-17T05:50:41.535Z,8.03
2022-10-17T05:53:17.186Z,7.37
2022-10-17T05:55:58.097Z,7.07
2022-10-17T06:01:30.109Z,7.57
2022-10-17T06:03:59.258Z,8.57
2022-10-17T06:06:28.039Z,9.13
2022-10-17T06:08:58.987Z,7.20
2022-10-17T06:11:33.752Z,8.20
2022-10-17T06:14:03.176Z,7.17
2022-10-17T06:16:32.554Z,7.93
2022-10-17T06:19:01.638Z,8.70
2022-10-17T06:21:34.444Z,9.43
2022-10-17T06:24:10.926Z,7.80
2022-10-17T06:26:42.710Z,7.93
2022-10-17T06:29:14.014Z,8.20
2022-10-17T06:31:48.063Z,9.43
2022-10-17T06:34:17.169Z,7.67
2022-10-17T06:36:47.108Z,8.50
2022-10-17T06:39:17.822Z,10.50
2022-10-17T06:41:54.037Z,8.27
2022-10-17T06:44:25.426Z,8.67
2022-10-17T06:47:17.893Z,6.80
2022-10-17T06:49:49.002Z,11.80
2022-10-17T06:52:26.628Z,8.17
2022-10-17T06:55:18.269Z,7.70
2022-10-17T06:58:09.516Z,10.30
2022-10-17T07:00:49.245Z,8.50
2022-10-17T07:03:19.198Z,10.80
2022-10-17T07:05:53.571Z,11.60
2022-10-17T07:08:22.964Z,14.80
2022-10-17T07:10:53.871Z,7.80
2022-10-17T07:13:22.978Z,9.33
2022-10-17T07:15:53.093Z,8.30
2022-10-17T07:18:22.257Z,7.00
2022-10-17T07:20:55.550Z,6.90
2022-10-17T07:23:25.361Z,15.90
2022-10-17T07:26:01.221Z,5.50
2022-10-17T07:28:31.012Z,8.03
2022-10-17T07:31:10.107Z,7.33
2022-10-17T07:33:40.369Z,9.63
2022-10-17T07:36:09.868Z,4.80
2022-10-17T07:38:39.069Z,6.90
2022-10-17T07:41:12.181Z,15.40
2022-10-17T07:43:43.015Z,5.73
2022-10-17T07:46:12.981Z,7.67
2022-10-17T07:48:42.290Z,5.20
2022-10-17T07:51:11.880Z,7.30
2022-10-17T07:53:46.362Z,8.30
2022-10-17T07:56:19.233Z,5.83
2022-10-17T07:58:48.542Z,7.20
2022-10-17T08:01:17.748Z,9.30
2022-10-17T08:03:48.604Z,5.67
2022-10-17T08:06:18.049Z,7.37
2022-10-17T08:08:47.022Z,5.00
2022-10-17T08:11:18.313Z,8.87
2022-10-17T08:13:47.354Z,7.57
2022-10-17T08:16:16.360Z,5.40
2022-10-17T08:18:46.462Z,6.90
2022-10-17T08:21:15.657Z,5.80
2022-10-17T08:23:44.695Z,5.57
2022-10-17T08:26:17.253Z,5.60
2022-10-17T08:28:48.036Z,6.67
2022-10-17T08:31:19.382Z,4.70
2022-10-17T08:33:49.805Z,4.47
2022-10-17T08:36:21.449Z,5.33
2022-10-17T08:38:52.950Z,8.27
2022-10-17T08:41:39.874Z,6.80
2022-10-17T08:44:22.116Z,5.57
2022-10-17T08:46:59.071Z,4.97
2022-10-17T08:49:37.148Z,5.63
2022-10-17T08:52:12.747Z,5.70
2022-10-17T08:54:46.299Z,7.40
2022-10-17T08:57:16.870Z,5.23
2022-10-17T08:59:52.217Z,6.93
2022-10-17T09:02:40.395Z,3.50
2022-10-17T09:05:29.686Z,3.73
2022-10-17T09:08:10.503Z,4.40
2022-10-17T09:10:53.898Z,6.43
2022-10-17T09:13:47.027Z,6.10
2022-10-17T09:16:39.840Z,5.53
2022-10-17T09:19:14.069Z,4.27
2022-10-17T09:21:47.310Z,6.40
2022-10-17T09:24:20.538Z,3.87
2022-10-17T09:26:49.614Z,5.23
2022-10-17T09:29:23.587Z,4.37
2022-10-17T09:32:01.968Z,4.40
2022-10-17T09:34:33.595Z,4.30
2022-10-17T09:37:03.671Z,8.43
2022-10-17T09:39:33.235Z,6.40
2022-10-17T09:42:04.082Z,3.83
2022-10-17T09:44:34.891Z,8.47
2022-10-17T09:47:16.955Z,5.30
2022-10-17T09:49:47.917Z,4.10
2022-10-17T09:52:23.492Z,3.70
2022-10-17T09:54:55.560Z,9.00
2022-10-17T09:57:25.674Z,5.17
2022-10-17T10:00:01.265Z,7.63
2022-10-17T10:02:36.697Z,5.10
2022-10-17T10:05:16.685Z,7.63
2022-10-17T10:08:02.853Z,5.50
2022-10-17T10:10:33.928Z,4.30
2022-10-17T10:13:18.278Z,3.93
2022-10-17T10:15:49.525Z,3.47
2022-10-17T10:18:36.666Z,4.80
2022-10-17T10:21:12.520Z,4.13
2022-10-17T10:23:43.060Z,3.90
2022-10-17T10:26:24.797Z,4.53
2022-10-17T10:29:00.080Z,8.33
2022-10-17T10:31:35.708Z,4.67
2022-10-17T10:34:18.007Z,4.60
2022-10-17T10:36:57.864Z,5.80
2022-10-17T10:39:36.134Z,4.33
2022-10-17T10:42:08.253Z,3.07
2022-10-17T10:44:40.891Z,7.03
2022-10-17T10:47:22.715Z,5.80
2022-10-17T10:50:08.740Z,3.73
2022-10-17T10:52:44.846Z,4.50
2022-10-17T10:55:25.290Z,5.83
2022-10-17T10:57:59.938Z,5.23
2022-10-17T11:00:30.793Z,4.27
2022-10-17T11:03:11.821Z,3.37
2022-10-17T11:05:48.357Z,6.03
2022-10-17T11:08:27.983Z,4.60
2022-10-17T11:11:13.860Z,3.70
2022-10-17T11:13:51.888Z,4.90
2022-10-17T11:16:32.789Z,5.33
2022-10-17T11:19:09.428Z,8.70
2022-10-17T11:21:48.152Z,4.07
2022-10-17T11:24:24.862Z,3.53
2022-10-17T11:27:00.234Z,4.37
2022-10-17T11:29:32.266Z,5.90
2022-10-17T11:32:07.168Z,7.47
2022-10-17T11:34:42.998Z,4.80
2022-10-17T11:37:18.822Z,4.60
2022-10-17T11:39:52.836Z,4.83
2022-10-17T11:42:27.541Z,7.20
2022-10-17T11:45:04.860Z,3.40
2022-10-17T11:47:46.213Z,3.03
2022-10-17T11:53:21.480Z,3.87
2022-10-17T11:55:52.439Z,3.37
2022-10-17T11:58:31.321Z,3.20
2022-10-17T12:01:11.120Z,3.53
2022-10-17T12:04:06.488Z,4.40
2022-10-17T12:06:49.784Z,3.50
2022-10-17T12:09:28.753Z,3.97
2022-10-17T12:12:00.028Z,3.33
2022-10-17T12:14:41.757Z,6.20
2022-10-17T12:17:42.392Z,4.80
2022-10-17T12:20:31.943Z,4.30
2022-10-17T12:23:20.541Z,3.23
2022-10-17T12:25:59.636Z,4.33
2022-10-17T12:28:35.107Z,4.30
2022-10-17T12:31:08.805Z,4.23
2022-10-17T12:33:41.438Z,4.80
2022-10-17T12:36:47.117Z,3.93
2022-10-17T12:39:43.637Z,4.57
2022-10-17T12:42:33.146Z,4.20
2022-10-17T12:45:02.367Z,5.27
2022-10-17T12:47:40.225Z,3.60
2022-10-17T12:50:43.009Z,4.00
2022-10-17T12:53:19.303Z,3.60
2022-10-17T12:55:51.939Z,3.77
2022-10-17T12:58:22.539Z,8.13
2022-10-17T13:01:19.104Z,3.10
2022-10-17T13:03:48.135Z,5.37
2022-10-17T13:06:22.278Z,2.60
2022-10-17T13:08:59.788Z,5.93
2022-10-17T13:11:35.988Z,3.63
2022-10-17T13:14:14.699Z,3.80
2022-10-17T13:16:53.673Z,6.03
2022-10-17T13:19:25.911Z,3.60
2022-10-17T13:21:59.904Z,4.40
2022-10-17T13:24:32.784Z,4.70
2022-10-17T13:27:04.965Z,5.00
2022-10-17T13:29:35.749Z,4.47
2022-10-17T13:32:06.731Z,5.23
2022-10-17T13:34:36.241Z,6.70
2022-10-17T13:37:07.757Z,5.50
2022-10-17T13:40:00.094Z,4.57
2022-10-17T13:42:32.363Z,8.63
2022-10-17T13:45:03.631Z,6.37
2022-10-17T13:47:37.952Z,7.00
2022-10-17T13:50:26.468Z,4.10
2022-10-17T13:53:20.886Z,5.80
2022-10-17T13:56:09.469Z,3.87
2022-10-17T13:58:45.418Z,4.37
2022-10-17T14:01:16.824Z,11.83
2022-10-17T14:03:49.115Z,3.50
2022-10-17T14:06:21.693Z,4.23
2022-10-17T14:08:54.868Z,5.50
2022-10-17T14:11:32.151Z,8.37
2022-10-17T14:14:02.871Z,5.87
2022-10-17T14:16:40.101Z,6.60
2022-10-17T14:19:26.215Z,5.80
2022-10-17T14:21:57.217Z,5.70
2022-10-17T14:24:32.754Z,4.07
2022-10-17T14:27:02.503Z,5.80
2022-10-17T14:29:33.539Z,3.57
2022-10-17T14:32:08.693Z,7.27
2022-10-17T14:34:40.660Z,4.53
2022-10-17T14:37:23.820Z,3.37
2022-10-17T14:39:55.277Z,2.87
2022-10-17T14:42:25.078Z,5.83
2022-10-17T14:44:58.194Z,5.63
2022-10-17T14:47:45.363Z,6.60
2022-10-17T14:50:26.496Z,4.63
2022-10-17T14:53:05.020Z,5.20
2022-10-17T14:55:36.803Z,5.20
2022-10-17T14:58:18.693Z,8.30
2022-10-17T15:00:47.561Z,7.57
2022-10-17T15:03:19.497Z,5.67
2022-10-17T15:05:49.696Z,7.20
2022-10-17T15:08:21.381Z,6.40
2022-10-17T15:10:52.885Z,4.80
2022-10-17T15:13:31.331Z,7.23
2022-10-17T15:16:02.480Z,5.43
2022-10-17T15:18:34.215Z,4.47
2022-10-17T15:21:05.319Z,4.07
2022-10-17T15:23:46.815Z,6.00
2022-10-17T15:26:20.078Z,5.60
2022-10-17T15:28:50.785Z,7.50
2022-10-17T15:31:22.361Z,6.60
2022-10-17T15:33:53.118Z,5.60
2022-10-17T15:36:26.319Z,8.30
2022-10-17T15:38:58.965Z,5.33
2022-10-17T15:41:30.457Z,5.03
2022-10-17T15:43:59.966Z,9.13
2022-10-17T15:46:34.056Z,8.73
2022-10-17T15:49:07.688Z,5.37
2022-10-17T15:51:36.589Z,10.13
2022-10-17T15:54:06.447Z,7.77
2022-10-17T15:56:41.529Z,6.23
2022-10-17T15:59:16.905Z,4.83
2022-10-17T16:01:46.423Z,8.30
2022-10-17T16:04:17.207Z,7.43
2022-10-17T16:06:46.096Z,6.60
2022-10-17T16:09:14.832Z,6.30
2022-10-17T16:11:45.467Z,8.80
2022-10-17T16:14:16.814Z,8.93
2022-10-17T16:16:45.880Z,7.13
2022-10-17T16:19:16.373Z,6.33
2022-10-17T16:21:45.498Z,4.53
2022-10-17T16:24:14.595Z,5.10
2022-10-17T16:26:43.454Z,5.57
2022-10-17T16:29:12.284Z,7.63
2022-10-17T16:31:45.299Z,6.63
2022-10-17T16:34:17.035Z,6.10
2022-10-17T16:36:45.814Z,6.73
2022-10-17T16:39:14.730Z,6.20
2022-10-17T16:41:43.614Z,5.07
2022-10-17T16:44:14.876Z,9.93
2022-10-17T16:46:43.697Z,5.00
2022-10-17T16:49:13.023Z,7.50
2022-10-17T16:51:43.860Z,4.70
2022-10-17T16:54:12.626Z,6.53
2022-10-17T16:56:42.269Z,8.47
2022-10-17T16:59:12.765Z,6.67
2022-10-17T17:01:41.886Z,9.43
2022-10-17T17:04:10.609Z,6.80
2022-10-17T17:06:39.486Z,4.67
2022-10-17T17:09:10.949Z,5.70
2022-10-17T17:11:40.216Z,4.90
2022-10-17T17:14:10.399Z,6.63
2022-10-17T17:16:39.322Z,6.77
2022-10-17T17:19:12.922Z,6.00
2022-10-17T17:21:43.344Z,5.30
2022-10-17T17:24:13.480Z,11.60
2022-10-17T17:26:42.339Z,7.13
2022-10-17T17:29:12.152Z,11.10
2022-10-17T17:31:40.975Z,10.50
2022-10-17T17:34:11.103Z,5.77
2022-10-17T17:36:41.930Z,9.00
2022-10-17T17:39:17.549Z,7.10
2022-10-17T17:41:47.104Z,9.70
2022-10-17T17:44:17.155Z,8.00
2022-10-17T17:46:46.919Z,5.63
2022-10-17T17:49:16.093Z,9.60
2022-10-17T17:51:46.696Z,9.03
2022-10-17T17:54:17.562Z,11.93
2022-10-17T17:56:46.339Z,10.73
2022-10-17T17:59:15.380Z,10.70
2022-10-17T18:01:45.435Z,11.30
2022-10-17T18:04:16.299Z,12.30
2022-10-17T18:06:45.237Z,9.83
2022-10-17T18:09:14.385Z,12.30
2022-10-17T18:11:44.650Z,11.47
2022-10-17T18:14:14.324Z,6.13
2022-10-17T18:16:43.575Z,9.20
2022-10-17T18:19:13.549Z,7.83
2022-10-17T18:21:43.044Z,13.60
2022-10-17T18:24:11.985Z,8.93
2022-10-17T18:26:40.806Z,8.50
2022-10-17T18:29:12.750Z,9.43
2022-10-17T18:31:41.567Z,24.33
2022-10-17T18:34:11.106Z,11.70
2022-10-17T18:36:40.060Z,11.13
2022-10-17T18:39:08.993Z,7.93
2022-10-17T18:41:37.769Z,6.90
2022-10-17T18:44:06.905Z,5.97
2022-10-17T18:46:41.020Z,8.27
2022-10-17T18:49:16.291Z,9.50
2022-10-17T18:51:45.168Z,20.30
2022-10-17T18:54:17.134Z,10.47
2022-10-17T18:56:45.893Z,10.03
2022-10-17T18:59:14.974Z,11.63
2022-10-17T19:01:45.851Z,10.07
2022-10-17T19:04:15.092Z,13.47
2022-10-17T19:06:44.659Z,13.57
2022-10-17T19:09:15.770Z,13.27
2022-10-17T19:11:45.031Z,14.90
2022-10-17T19:14:14.785Z,13.37
2022-10-17T19:16:48.615Z,13.00
2022-10-17T19:19:20.205Z,12.40
2022-10-17T19:21:50.039Z,14.03
2022-10-17T19:24:22.867Z,15.63
2022-10-17T19:26:54.530Z,17.57
2022-10-17T19:29:27.223Z,16.07
2022-10-17T19:31:57.558Z,11.97
2022-10-17T19:34:27.779Z,12.00
2022-10-17T19:36:57.027Z,13.67
2022-10-17T19:39:26.677Z,15.47
2022-10-17T19:41:56.089Z,12.77
2022-10-17T19:44:25.156Z,19.40
2022-10-17T19:46:54.481Z,13.40
2022-10-17T19:49:25.039Z,15.77
2022-10-17T19:51:53.980Z,15.80
2022-10-17T19:54:22.702Z,13.30
2022-10-17T19:56:51.454Z,16.60
2022-10-17T19:59:20.375Z,16.23
2022-10-17T20:01:49.232Z,16.33
2022-10-17T20:04:18.033Z,18.70
2022-10-17T20:06:48.292Z,20.33
2022-10-17T20:09:17.546Z,15.77
2022-10-17T20:11:47.189Z,16.70
2022-10-17T20:14:16.000Z,15.43
2022-10-17T20:16:50.170Z,15.43
2022-10-17T20:19:19.465Z,16.20
2022-10-17T20:21:49.617Z,16.37
2022-10-17T20:24:18.907Z,15.90
2022-10-17T20:26:47.878Z,15.83
2022-10-17T20:29:20.218Z,15.97
2022-10-17T20:31:50.076Z,12.67
2022-10-17T20:34:20.951Z,12.20
2022-10-17T20:36:51.573Z,21.90
2022-10-17T20:39:22.039Z,15.33
2022-10-17T20:41:50.985Z,14.87
2022-10-17T20:44:19.993Z,17.87
2022-10-17T20:47:01.262Z,17.20
2022-10-17T20:49:31.900Z,19.33
2022-10-17T20:52:02.749Z,13.00
2022-10-17T20:54:31.900Z,12.80
2022-10-17T20:57:03.927Z,16.93
2022-10-17T20:59:36.131Z,13.40
2022-10-17T21:02:06.045Z,20.83
2022-10-17T21:04:50.745Z,14.33
2022-10-17T21:07:22.289Z,14.80
2022-10-17T21:09:51.418Z,24.87
2022-10-17T21:12:30.924Z,11.87
2022-10-17T21:15:10.434Z,12.50
2022-10-17T21:17:39.325Z,14.47
2022-10-17T21:20:09.863Z,16.33
2022-10-17T21:22:40.322Z,13.33
2022-10-17T21:25:10.543Z,19.80
2022-10-17T21:27:39.481Z,15.63
2022-10-17T21:30:09.409Z,12.30
2022-10-17T21:32:50.994Z,12.20
2022-10-17T21:35:20.883Z,20.43
2022-10-17T21:37:51.148Z,15.70
2022-10-17T21:40:20.141Z,26.77
2022-10-17T21:42:48.931Z,20.77
2022-10-17T21:45:25.303Z,17.17
2022-10-17T21:48:12.222Z,22.70
2022-10-17T21:50:42.364Z,20.33
2022-10-17T21:53:12.759Z,22.80
2022-10-17T21:55:41.545Z,20.67
2022-10-17T21:58:10.382Z,19.53
2022-10-17T22:00:39.194Z,21.07
2022-10-17T22:03:09.604Z,13.80
2022-10-17T22:05:38.333Z,15.10
2022-10-17T22:08:07.477Z,16.20
2022-10-17T22:10:40.547Z,12.53
2022-10-17T22:13:09.591Z,12.77
2022-10-17T22:15:38.380Z,18.00
2022-10-17T22:18:08.728Z,13.37
2022-10-17T22:20:37.804Z,11.77
2022-10-17T22:23:07.756Z,12.00
2022-10-17T22:25:39.933Z,11.20
2022-10-17T22:28:08.902Z,16.30
2022-10-17T22:30:37.615Z,12.00
2022-10-17T22:33:06.570Z,16.90
2022-10-17T22:35:35.741Z,9.90
2022-10-17T22:38:04.507Z,10.07
2022-10-17T22:40:33.419Z,13.70
2022-10-17T22:43:04.032Z,8.50
2022-10-17T22:45:33.187Z,8.60
2022-10-17T22:48:01.978Z,17.70
2022-10-17T22:50:30.864Z,7.80
2022-10-17T22:52:59.648Z,14.37
2022-10-17T22:55:28.756Z,9.00
2022-10-17T22:57:57.536Z,8.30
2022-10-17T23:02:57.710Z,8.17
2022-10-17T23:05:26.564Z,9.10
2022-10-17T23:07:55.477Z,11.70
2022-10-17T23:10:24.218Z,11.67
2022-10-17T23:12:53.217Z,9.83
2022-10-17T23:15:22.249Z,9.00
2022-10-17T23:17:52.523Z,10.47
2022-10-17T23:20:21.411Z,12.97
2022-10-17T23:22:50.299Z,11.77
2022-10-17T23:25:19.659Z,8.83
2022-10-17T23:27:49.175Z,13.57
2022-10-17T23:30:18.311Z,13.43
2022-10-17T23:32:47.127Z,10.60
2022-10-17T23:35:17.591Z,12.90
2022-10-17T23:37:46.377Z,9.73
2022-10-17T23:40:15.774Z,10.80
2022-10-17T23:42:45.194Z,10.27
2022-10-17T23:45:14.670Z,11.83
2022-10-17T23:47:44.010Z,8.67
2022-10-17T23:50:12.878Z,8.10
2022-10-17T23:52:43.051Z,9.40
2022-10-17T23:55:12.533Z,9.37
2022-10-17T23:57:41.398Z,8.47
